Аэропорт: Нальчик. Нальчик

ICAO: URMN

METAR:
2020-10-23 11:00:00
URMN 231100Z 07002MPS 9999 BKN/// 20/01 Q1022 R24/010070 NOSIG RMK QFE730
METAR:
2020-10-23 08:00:00
TAF URMN 230800Z 2309/2318 06003MPS 9999 SCT020